Lindon, Colorado
Current Conditions -  °F | °C
As of 10:53 AM on Thursday 27 Nov 2014 (Local Time) from KAKO Reporting Station
Clear Clear  
Wind Chill: 42°   Ceiling: Unl
Heat Index: 48°   Visibility: 10mi
Dew Point: 27°   Wind: 14mph
Humidity: 44%   Direction: 220°SW
Pressure: 30.15"   Gusts: NA
Location:  39.74°N, 103.41°W
Report Text: KAKO 271753Z AUTO 22012KT 10SM CLR 09/M03 A3015 RMK AO2 SLP225 T00891028 10094 21033 58010
Loading
Personal Weather Stations






























Interactive Weather Map New forecast layout! Learn more

10-Day Weather Forecast

Advertisements
Track Severe Weather on mobile